createdAt,value
2023-03-19T00:00:33.595Z,14.73
2023-03-19T00:03:03.343Z,10.85
2023-03-19T00:05:32.044Z,14.35
2023-03-19T00:08:00.466Z,14.32
2023-03-19T00:10:29.991Z,19.10
2023-03-19T00:12:58.236Z,9.32
2023-03-19T00:15:26.431Z,15.57
2023-03-19T00:17:56.618Z,14.57
2023-03-19T00:20:26.414Z,9.13
2023-03-19T00:22:54.656Z,12.60
2023-03-19T00:25:22.968Z,12.73
2023-03-19T00:27:52.835Z,11.93
2023-03-19T00:30:21.498Z,14.52
2023-03-19T00:32:50.421Z,16.90
2023-03-19T00:35:19.128Z,14.73
2023-03-19T00:37:48.777Z,14.13
2023-03-19T00:40:17.093Z,15.52
2023-03-19T00:42:45.703Z,13.35
2023-03-19T00:45:14.232Z,13.88
2023-03-19T00:47:42.495Z,13.07
2023-03-19T00:50:12.236Z,15.55
2023-03-19T00:52:41.130Z,16.67
2023-03-19T00:55:11.115Z,12.60
2023-03-19T00:57:39.395Z,14.60
2023-03-19T01:00:10.865Z,11.77
2023-03-19T01:02:39.217Z,10.15
2023-03-19T01:05:09.627Z,13.18
2023-03-19T01:07:37.911Z,11.95
2023-03-19T01:10:07.301Z,8.93
2023-03-19T01:12:37.069Z,12.37
2023-03-19T01:15:07.060Z,11.45
2023-03-19T01:17:35.689Z,13.45
2023-03-19T01:20:08.819Z,10.57
2023-03-19T01:22:37.873Z,9.65
2023-03-19T01:25:07.595Z,12.35
2023-03-19T01:27:37.747Z,11.53
2023-03-19T01:30:07.791Z,8.37
2023-03-19T01:33:15.547Z,9.45
2023-03-19T01:36:11.380Z,10.10
2023-03-19T01:38:52.743Z,9.15
2023-03-19T01:41:21.340Z,11.35
2023-03-19T01:43:54.404Z,8.63
2023-03-19T01:46:42.141Z,7.88
2023-03-19T01:49:37.715Z,10.73
2023-03-19T01:52:20.724Z,10.10
2023-03-19T01:55:10.559Z,9.13
2023-03-19T01:57:50.646Z,8.68
2023-03-19T02:00:40.106Z,7.72
2023-03-19T02:03:09.534Z,6.90
2023-03-19T02:06:01.580Z,7.95
2023-03-19T02:08:30.825Z,8.90
2023-03-19T02:11:00.444Z,8.98
2023-03-19T02:13:28.967Z,10.50
2023-03-19T02:15:59.068Z,7.28
2023-03-19T02:18:27.323Z,9.75
2023-03-19T02:21:04.442Z,7.97
2023-03-19T02:23:38.705Z,12.88
2023-03-19T02:26:18.423Z,8.70
2023-03-19T02:28:51.716Z,9.23
2023-03-19T02:31:26.123Z,11.25
2023-03-19T02:34:02.862Z,6.90
2023-03-19T02:36:35.197Z,8.68
2023-03-19T02:39:07.168Z,8.60
2023-03-19T02:41:40.752Z,9.50
2023-03-19T02:44:12.944Z,7.10
2023-03-19T02:46:41.559Z,6.90
2023-03-19T02:49:09.773Z,8.48
2023-03-19T02:51:38.388Z,7.20
2023-03-19T02:54:06.880Z,10.75
2023-03-19T02:56:36.479Z,6.75
2023-03-19T02:59:06.626Z,9.10
2023-03-19T03:01:35.184Z,8.10
2023-03-19T03:04:04.958Z,9.95
2023-03-19T03:06:33.584Z,10.80
2023-03-19T03:09:03.927Z,15.30
2023-03-19T03:11:32.189Z,7.32
2023-03-19T03:14:01.790Z,7.18
2023-03-19T03:16:30.089Z,8.40
2023-03-19T03:18:58.366Z,9.18
2023-03-19T03:21:26.646Z,11.60
2023-03-19T03:23:55.016Z,11.88
2023-03-19T03:26:23.615Z,8.88
2023-03-19T03:28:52.187Z,8.65
2023-03-19T03:31:22.424Z,9.10
2023-03-19T03:33:51.808Z,9.30
2023-03-19T03:36:19.989Z,7.93
2023-03-19T03:38:48.194Z,7.03
2023-03-19T03:41:17.394Z,6.40
2023-03-19T03:43:46.215Z,6.97
2023-03-19T03:46:14.875Z,6.60
2023-03-19T03:48:44.467Z,6.82
2023-03-19T03:51:12.895Z,7.03
2023-03-19T03:53:41.307Z,6.60
2023-03-19T03:56:10.139Z,6.13
2023-03-19T03:58:39.325Z,6.67
2023-03-19T04:01:08.312Z,7.63
2023-03-19T04:03:36.772Z,8.00
2023-03-19T04:06:07.214Z,5.70
2023-03-19T04:08:35.963Z,6.10
2023-03-19T04:11:08.133Z,5.60
2023-03-19T04:13:37.683Z,4.00
2023-03-19T04:16:09.747Z,6.03
2023-03-19T04:18:38.920Z,4.38
2023-03-19T04:21:09.120Z,6.03
2023-03-19T04:23:37.839Z,4.13
2023-03-19T04:26:08.042Z,5.90
2023-03-19T04:28:36.645Z,4.20
2023-03-19T04:31:07.375Z,4.32
2023-03-19T04:33:38.788Z,5.07
2023-03-19T04:36:08.941Z,5.13
2023-03-19T04:38:39.323Z,5.75
2023-03-19T04:41:07.647Z,4.63
2023-03-19T04:43:38.716Z,5.50
2023-03-19T04:46:08.115Z,6.18
2023-03-19T04:48:37.814Z,4.53
2023-03-19T04:51:09.686Z,5.68
2023-03-19T04:53:39.964Z,6.65
2023-03-19T04:56:09.017Z,4.33
2023-03-19T04:58:37.371Z,8.38
2023-03-19T05:01:05.966Z,5.35
2023-03-19T05:03:57.841Z,5.50
2023-03-19T05:06:28.191Z,6.95
2023-03-19T05:08:56.738Z,5.80
2023-03-19T05:11:25.413Z,6.22
2023-03-19T05:14:13.962Z,5.35
2023-03-19T05:16:58.075Z,4.53
2023-03-19T05:19:29.186Z,4.95
2023-03-19T05:21:58.929Z,7.75
2023-03-19T05:24:28.974Z,7.47
2023-03-19T05:26:58.254Z,5.15
2023-03-19T05:29:48.250Z,6.13
2023-03-19T05:32:23.403Z,7.07
2023-03-19T05:34:52.128Z,5.40
2023-03-19T05:37:22.581Z,4.07
2023-03-19T05:39:57.264Z,6.73
2023-03-19T05:42:25.546Z,6.40
2023-03-19T05:44:56.386Z,6.90
2023-03-19T05:47:29.806Z,6.00
2023-03-19T05:50:00.948Z,7.35
2023-03-19T05:52:32.166Z,6.03
2023-03-19T05:55:01.693Z,4.93
2023-03-19T05:57:43.722Z,5.25
2023-03-19T06:00:19.453Z,5.90
2023-03-19T06:02:48.733Z,7.00
2023-03-19T06:05:37.413Z,6.18
2023-03-19T06:08:17.251Z,4.90
2023-03-19T06:10:56.536Z,6.43
2023-03-19T06:13:24.945Z,4.20
2023-03-19T06:16:06.930Z,5.20
2023-03-19T06:18:42.143Z,6.72
2023-03-19T06:21:13.277Z,5.68
2023-03-19T06:23:42.940Z,5.68
2023-03-19T06:26:13.962Z,4.50
2023-03-19T06:28:53.520Z,5.35
2023-03-19T06:31:22.475Z,4.80
2023-03-19T06:34:03.731Z,5.15
2023-03-19T06:36:40.173Z,6.80
2023-03-19T06:39:12.848Z,5.85
2023-03-19T06:41:41.426Z,5.25
2023-03-19T06:44:20.172Z,5.73
2023-03-19T06:46:48.545Z,5.50
2023-03-19T06:49:17.161Z,5.57
2023-03-19T06:51:45.548Z,5.05
2023-03-19T06:54:15.446Z,4.97
2023-03-19T06:56:43.805Z,2.95
2023-03-19T06:59:13.245Z,3.80
2023-03-19T07:01:42.125Z,4.65
2023-03-19T07:04:11.006Z,8.38
2023-03-19T07:06:39.231Z,3.47
2023-03-19T07:09:07.909Z,4.90
2023-03-19T07:11:37.556Z,2.80
2023-03-19T07:14:06.300Z,7.80
2023-03-19T07:16:34.814Z,2.53
2023-03-19T07:19:03.791Z,3.30
2023-03-19T07:21:32.180Z,3.17
2023-03-19T07:24:00.396Z,3.00
2023-03-19T07:26:28.772Z,2.80
2023-03-19T07:28:58.342Z,2.95
2023-03-19T07:31:26.659Z,3.80
2023-03-19T07:33:54.908Z,3.05
2023-03-19T07:36:23.382Z,7.93
2023-03-19T07:38:51.714Z,5.72
2023-03-19T07:41:20.094Z,2.70
2023-03-19T07:43:48.346Z,5.78
2023-03-19T07:46:18.154Z,2.20
2023-03-19T07:48:46.644Z,4.80
2023-03-19T07:51:14.940Z,3.60
2023-03-19T07:53:43.257Z,4.78
2023-03-19T07:56:11.836Z,6.03
2023-03-19T07:58:40.093Z,4.80
2023-03-19T08:01:08.329Z,4.90
2023-03-19T08:03:38.547Z,4.57
2023-03-19T08:06:07.450Z,4.97
2023-03-19T08:08:35.873Z,3.45
2023-03-19T08:11:05.217Z,6.13
2023-03-19T08:13:33.570Z,5.57
2023-03-19T08:16:02.994Z,3.83
2023-03-19T08:18:31.560Z,4.07
2023-03-19T08:21:01.380Z,5.05
2023-03-19T08:23:29.838Z,2.80
2023-03-19T08:25:58.114Z,3.85
2023-03-19T08:28:26.408Z,3.90
2023-03-19T08:30:55.770Z,4.60
2023-03-19T08:33:24.864Z,3.33
2023-03-19T08:35:53.354Z,3.40
2023-03-19T08:38:23.294Z,5.33
2023-03-19T08:40:51.589Z,6.30
2023-03-19T08:43:19.983Z,3.40
2023-03-19T08:45:48.152Z,2.78
2023-03-19T08:48:16.317Z,3.50
2023-03-19T08:50:44.529Z,5.00
2023-03-19T08:53:12.748Z,7.07
2023-03-19T08:55:43.982Z,5.13
2023-03-19T08:58:12.272Z,7.20
2023-03-19T09:00:40.492Z,5.20
2023-03-19T09:03:08.774Z,5.97
2023-03-19T09:05:37.350Z,5.85
2023-03-19T09:08:05.721Z,3.95
2023-03-19T09:10:34.356Z,3.30
2023-03-19T09:13:04.427Z,3.90
2023-03-19T09:15:32.998Z,4.03
2023-03-19T09:18:01.466Z,4.45
2023-03-19T09:20:29.914Z,4.80
2023-03-19T09:22:58.159Z,4.75
2023-03-19T09:25:26.375Z,4.88
2023-03-19T09:27:54.647Z,4.10
2023-03-19T09:30:24.211Z,3.50
2023-03-19T09:32:53.076Z,4.60
2023-03-19T09:35:21.517Z,4.72
2023-03-19T09:37:51.849Z,8.25
2023-03-19T09:40:27.660Z,4.65
2023-03-19T09:43:04.492Z,6.95
2023-03-19T09:45:34.573Z,5.70
2023-03-19T09:48:06.953Z,3.97
2023-03-19T09:50:36.475Z,4.53
2023-03-19T09:53:09.346Z,4.70
2023-03-19T09:55:43.773Z,4.80
2023-03-19T09:58:16.723Z,5.82
2023-03-19T10:00:51.133Z,5.60
2023-03-19T10:03:39.736Z,6.18
2023-03-19T10:06:19.304Z,6.32
2023-03-19T10:09:16.868Z,5.47
2023-03-19T10:11:57.251Z,5.32
2023-03-19T10:14:51.389Z,5.25
2023-03-19T10:17:25.689Z,5.57
2023-03-19T10:19:59.370Z,4.95
2023-03-19T10:22:31.488Z,3.90
2023-03-19T10:25:00.564Z,4.00
2023-03-19T10:27:30.525Z,4.85
2023-03-19T10:29:58.752Z,3.70
2023-03-19T10:32:39.364Z,4.43
2023-03-19T10:35:17.573Z,6.78
2023-03-19T10:37:45.751Z,6.10
2023-03-19T10:40:22.938Z,11.13
2023-03-19T10:43:05.367Z,8.75
2023-03-19T10:45:38.036Z,4.28
2023-03-19T10:48:14.584Z,4.03
2023-03-19T10:50:50.823Z,5.30
2023-03-19T10:53:34.606Z,4.40
2023-03-19T10:56:05.082Z,3.90
2023-03-19T10:58:35.541Z,4.73
2023-03-19T11:01:07.079Z,2.80
2023-03-19T11:03:38.759Z,2.33
2023-03-19T11:06:17.180Z,2.67
2023-03-19T11:08:55.335Z,3.10
2023-03-19T11:11:33.683Z,2.87
2023-03-19T11:14:08.684Z,1.92
2023-03-19T11:16:49.462Z,4.28
2023-03-19T11:19:21.812Z,2.40
2023-03-19T11:22:10.049Z,2.78
2023-03-19T11:24:39.395Z,2.20
2023-03-19T11:27:08.676Z,3.80
2023-03-19T11:29:41.765Z,2.53
2023-03-19T11:32:25.922Z,2.10
2023-03-19T11:35:01.430Z,2.20
2023-03-19T11:37:43.759Z,1.83
2023-03-19T11:40:18.262Z,2.40
2023-03-19T11:43:14.277Z,4.38
2023-03-19T11:45:56.794Z,2.50
2023-03-19T11:48:40.907Z,2.63
2023-03-19T11:51:16.650Z,1.60
2023-03-19T11:54:00.517Z,3.13
2023-03-19T11:56:36.972Z,2.60
2023-03-19T11:59:36.609Z,2.35
2023-03-19T12:02:40.651Z,3.10
2023-03-19T12:05:23.892Z,2.20
2023-03-19T12:08:07.502Z,2.40
2023-03-19T12:10:55.271Z,2.33
2023-03-19T12:13:32.704Z,3.97
2023-03-19T12:16:10.295Z,2.70
2023-03-19T12:19:02.023Z,4.00
2023-03-19T12:21:38.977Z,3.15
2023-03-19T12:24:18.718Z,3.45
2023-03-19T12:27:00.655Z,2.80
2023-03-19T12:29:36.350Z,4.00
2023-03-19T12:32:14.920Z,4.00
2023-03-19T12:34:47.821Z,4.68
2023-03-19T12:37:22.521Z,3.20
2023-03-19T12:40:01.672Z,3.60
2023-03-19T12:42:37.162Z,3.55
2023-03-19T12:45:17.708Z,5.30
2023-03-19T12:47:47.785Z,6.10
2023-03-19T12:50:18.479Z,4.00
2023-03-19T12:52:50.949Z,3.60
2023-03-19T12:55:23.038Z,3.50
2023-03-19T12:57:54.811Z,2.80
2023-03-19T13:00:31.921Z,3.95
2023-03-19T13:03:08.169Z,2.90
2023-03-19T13:05:43.441Z,5.13
2023-03-19T13:08:17.001Z,5.05
2023-03-19T13:10:46.690Z,3.65
2023-03-19T13:13:39.473Z,2.15
2023-03-19T13:16:17.569Z,5.88
2023-03-19T13:18:54.885Z,2.60
2023-03-19T13:21:25.403Z,3.17
2023-03-19T13:24:04.135Z,1.95
2023-03-19T13:26:35.772Z,1.40
2023-03-19T13:29:10.296Z,1.48
2023-03-19T13:31:39.131Z,1.50
2023-03-19T13:34:18.307Z,1.30
2023-03-19T13:36:49.450Z,1.65
2023-03-19T13:39:21.644Z,1.70
2023-03-19T13:41:59.725Z,1.70
2023-03-19T13:44:42.433Z,3.65
2023-03-19T13:47:40.119Z,3.17
2023-03-19T13:50:52.018Z,3.00
2023-03-19T13:53:35.633Z,4.75
2023-03-19T13:56:15.905Z,3.40
2023-03-19T13:58:54.246Z,6.03
2023-03-19T14:01:40.606Z,5.78
2023-03-19T14:04:18.910Z,4.43
2023-03-19T14:06:50.006Z,4.20
2023-03-19T14:09:39.788Z,5.45
2023-03-19T14:12:24.180Z,3.30
2023-03-19T14:14:57.108Z,3.33
2023-03-19T14:17:28.761Z,3.70
2023-03-19T14:20:07.177Z,5.35
2023-03-19T14:22:39.885Z,5.22
2023-03-19T14:25:19.634Z,6.80
2023-03-19T14:27:50.008Z,6.40
2023-03-19T14:30:30.933Z,5.97
2023-03-19T14:33:02.420Z,6.97
2023-03-19T14:35:34.706Z,6.75
2023-03-19T14:38:06.193Z,6.87
2023-03-19T14:40:46.715Z,6.68
2023-03-19T14:43:27.282Z,8.88
2023-03-19T14:46:01.453Z,7.00
2023-03-19T14:49:13.799Z,7.30
2023-03-19T14:51:55.439Z,7.30
2023-03-19T14:54:34.129Z,4.50
2023-03-19T14:57:07.862Z,4.30
2023-03-19T14:59:40.344Z,2.95
2023-03-19T15:02:23.901Z,4.60
2023-03-19T15:04:52.529Z,3.40
2023-03-19T15:07:23.897Z,2.50
2023-03-19T15:09:55.848Z,3.47
2023-03-19T15:12:48.682Z,3.05
2023-03-19T15:15:31.683Z,3.53
2023-03-19T15:18:04.640Z,2.20
2023-03-19T15:20:37.571Z,1.80
2023-03-19T15:23:20.033Z,1.40
2023-03-19T15:25:57.615Z,1.70
2023-03-19T15:28:28.048Z,3.38
2023-03-19T15:31:05.918Z,1.83
2023-03-19T15:33:46.006Z,2.60
2023-03-19T15:36:19.923Z,2.97
2023-03-19T15:38:54.830Z,2.83
2023-03-19T15:41:26.362Z,3.10
2023-03-19T15:43:55.417Z,2.78
2023-03-19T15:46:28.263Z,2.60
2023-03-19T15:49:04.921Z,2.00
2023-03-19T15:51:34.032Z,3.70
2023-03-19T15:54:03.320Z,3.90
2023-03-19T15:56:32.592Z,4.60
2023-03-19T15:59:01.553Z,3.25
2023-03-19T16:01:32.299Z,3.00
2023-03-19T16:04:05.821Z,2.00
2023-03-19T16:06:38.806Z,2.37
2023-03-19T16:09:25.981Z,1.60
2023-03-19T16:11:56.222Z,2.10
2023-03-19T16:14:27.051Z,2.40
2023-03-19T16:17:02.749Z,3.70
2023-03-19T16:19:36.102Z,3.03
2023-03-19T16:22:13.111Z,1.40
2023-03-19T16:24:43.678Z,1.88
2023-03-19T16:27:15.171Z,4.88
2023-03-19T16:29:45.839Z,2.97
2023-03-19T16:32:21.042Z,1.90
2023-03-19T16:34:53.560Z,3.25
2023-03-19T16:37:34.297Z,2.83
2023-03-19T16:40:04.388Z,3.50
2023-03-19T16:42:42.201Z,2.47
2023-03-19T16:45:27.293Z,2.45
2023-03-19T16:47:57.113Z,1.95
2023-03-19T16:50:30.948Z,2.50
2023-03-19T16:53:00.672Z,2.95
2023-03-19T16:55:32.309Z,1.75
2023-03-19T16:58:02.414Z,1.80
2023-03-19T17:00:32.062Z,2.00
2023-03-19T17:03:01.462Z,1.70
2023-03-19T17:05:31.222Z,1.80
2023-03-19T17:07:59.621Z,2.78
2023-03-19T17:10:30.184Z,3.58
2023-03-19T17:12:59.371Z,2.63
2023-03-19T17:15:29.925Z,2.40
2023-03-19T17:17:58.684Z,2.60
2023-03-19T17:20:32.528Z,2.10
2023-03-19T17:23:00.975Z,1.88
2023-03-19T17:25:29.555Z,3.05
2023-03-19T17:27:57.706Z,1.70
2023-03-19T17:30:28.601Z,4.25
2023-03-19T17:32:57.664Z,1.70
2023-03-19T17:35:26.141Z,1.92
2023-03-19T17:37:56.086Z,2.23
2023-03-19T17:40:27.681Z,4.15
2023-03-19T17:42:57.102Z,3.20
2023-03-19T17:45:29.705Z,3.20
2023-03-19T17:47:59.383Z,2.42
2023-03-19T17:50:31.365Z,4.03
2023-03-19T17:53:01.616Z,7.07
2023-03-19T17:55:31.246Z,6.23
2023-03-19T17:57:59.506Z,39.60
2023-03-19T18:00:27.661Z,52.13
2023-03-19T18:02:57.213Z,36.80
2023-03-19T18:05:26.780Z,14.73
2023-03-19T18:07:56.575Z,9.77
2023-03-19T18:10:30.369Z,10.10
2023-03-19T18:13:00.345Z,20.73
2023-03-19T18:15:33.185Z,21.80
2023-03-19T18:18:04.103Z,21.58
2023-03-19T18:20:37.274Z,15.77
2023-03-19T18:23:06.738Z,9.73
2023-03-19T18:25:36.592Z,8.20
2023-03-19T18:28:05.876Z,6.28
2023-03-19T18:30:37.313Z,4.70
2023-03-19T18:33:07.905Z,5.25
2023-03-19T18:35:39.854Z,5.17
2023-03-19T18:38:16.166Z,3.67
2023-03-19T18:40:46.366Z,4.40
2023-03-19T18:43:16.241Z,10.57
2023-03-19T18:45:46.614Z,12.05
2023-03-19T18:48:24.716Z,35.13
2023-03-19T18:50:53.391Z,26.05
2023-03-19T18:53:22.115Z,17.80
2023-03-19T18:55:52.794Z,13.73
2023-03-19T18:58:23.766Z,8.20
2023-03-19T19:00:52.992Z,7.30
2023-03-19T19:03:28.466Z,7.90
2023-03-19T19:05:56.945Z,6.15
2023-03-19T19:08:26.781Z,6.38
2023-03-19T19:11:01.968Z,8.70
2023-03-19T19:13:46.237Z,6.60
2023-03-19T19:16:26.127Z,5.65
2023-03-19T19:18:54.376Z,5.80
2023-03-19T19:21:22.655Z,8.18
2023-03-19T19:23:50.913Z,6.53
2023-03-19T19:26:25.245Z,6.75
2023-03-19T19:28:56.571Z,8.80
2023-03-19T19:31:27.004Z,7.63
2023-03-19T19:33:56.203Z,7.40
2023-03-19T19:36:25.812Z,5.18
2023-03-19T19:38:54.132Z,7.40
2023-03-19T19:41:25.813Z,6.70
2023-03-19T19:43:55.971Z,10.30
2023-03-19T19:46:25.651Z,7.35
2023-03-19T19:48:53.935Z,7.15
2023-03-19T19:51:24.140Z,10.93
2023-03-19T19:53:52.640Z,9.18
2023-03-19T19:56:24.226Z,9.93
2023-03-19T19:58:54.653Z,8.52
2023-03-19T20:01:24.902Z,12.20
2023-03-19T20:03:54.402Z,11.60
2023-03-19T20:06:22.834Z,11.80
2023-03-19T20:08:51.038Z,8.45
2023-03-19T20:11:21.486Z,8.57
2023-03-19T20:13:54.499Z,10.10
2023-03-19T20:16:24.462Z,7.40
2023-03-19T20:18:54.753Z,8.98
2023-03-19T20:21:23.971Z,11.80
2023-03-19T20:23:55.222Z,10.20
2023-03-19T20:26:24.861Z,7.00
2023-03-19T20:28:54.618Z,10.18
2023-03-19T20:31:26.491Z,11.93
2023-03-19T20:33:54.837Z,11.60
2023-03-19T20:36:23.174Z,14.77
2023-03-19T20:38:52.606Z,9.70
2023-03-19T20:41:22.789Z,13.90
2023-03-19T20:43:52.372Z,13.93
2023-03-19T20:46:23.196Z,11.55
2023-03-19T20:48:51.638Z,14.25
2023-03-19T20:51:22.707Z,19.83
2023-03-19T20:53:51.867Z,13.95
2023-03-19T20:56:22.401Z,17.40
2023-03-19T20:58:51.038Z,18.25
2023-03-19T21:01:19.766Z,14.23
2023-03-19T21:03:49.668Z,13.77
2023-03-19T21:06:21.033Z,15.15
2023-03-19T21:08:52.100Z,13.23
2023-03-19T21:11:22.029Z,14.90
2023-03-19T21:13:51.945Z,14.15
2023-03-19T21:16:21.941Z,17.10
2023-03-19T21:18:51.974Z,15.13
2023-03-19T21:21:29.727Z,20.25
2023-03-19T21:24:01.245Z,17.67
2023-03-19T21:26:29.537Z,18.38
2023-03-19T21:29:09.714Z,18.03
2023-03-19T21:31:37.986Z,17.05
2023-03-19T21:34:07.693Z,17.30
2023-03-19T21:36:35.861Z,15.73
2023-03-19T21:39:04.192Z,17.85
2023-03-19T21:41:36.037Z,19.40
2023-03-19T21:44:08.523Z,19.55
2023-03-19T21:46:36.986Z,19.97
2023-03-19T21:49:12.287Z,20.67
2023-03-19T21:51:42.660Z,24.67
2023-03-19T21:54:11.407Z,22.58
2023-03-19T21:56:42.511Z,20.63
2023-03-19T21:59:14.967Z,19.10
2023-03-19T22:01:43.644Z,19.38
2023-03-19T22:04:13.305Z,20.15
2023-03-19T22:06:42.959Z,21.90
2023-03-19T22:09:11.459Z,19.48
2023-03-19T22:11:41.861Z,17.15
2023-03-19T22:14:17.830Z,17.15
2023-03-19T22:16:47.131Z,21.02
2023-03-19T22:19:19.151Z,17.15
2023-03-19T22:21:47.729Z,19.88
2023-03-19T22:24:16.163Z,21.42
2023-03-19T22:26:46.484Z,18.95
2023-03-19T22:29:16.982Z,16.85
2023-03-19T22:31:45.745Z,17.65
2023-03-19T22:34:17.419Z,18.77
2023-03-19T22:36:46.024Z,20.85
2023-03-19T22:39:14.614Z,20.73
2023-03-19T22:41:45.713Z,17.25
2023-03-19T22:44:24.118Z,19.80
2023-03-19T22:46:52.455Z,18.67
2023-03-19T22:49:22.156Z,19.20
2023-03-19T22:51:51.252Z,23.23
2023-03-19T22:54:19.437Z,21.27
2023-03-19T22:56:47.653Z,20.23
2023-03-19T22:59:16.073Z,18.73
2023-03-19T23:01:46.424Z,17.92
2023-03-19T23:04:27.095Z,20.67
2023-03-19T23:06:56.695Z,21.70
2023-03-19T23:09:27.077Z,18.92
2023-03-19T23:11:56.273Z,17.92
2023-03-19T23:14:32.126Z,19.50
2023-03-19T23:17:03.199Z,18.13
2023-03-19T23:19:35.022Z,16.05
2023-03-19T23:22:05.128Z,17.48
2023-03-19T23:24:34.013Z,16.90
2023-03-19T23:27:03.430Z,20.57
2023-03-19T23:29:34.973Z,23.63
2023-03-19T23:32:04.377Z,25.10
2023-03-19T23:34:42.580Z,23.50
2023-03-19T23:37:18.258Z,21.38
2023-03-19T23:39:47.661Z,24.85
2023-03-19T23:42:28.695Z,26.90
2023-03-19T23:44:59.991Z,29.25
2023-03-19T23:47:30.064Z,28.90
2023-03-19T23:50:01.325Z,28.70
2023-03-19T23:52:29.650Z,30.58
2023-03-19T23:54:58.089Z,32.13
2023-03-19T23:57:27.803Z,28.23
2023-03-19T23:59:56.566Z,32.65
